createdAt,value
2023-04-15T00:00:57.788Z,996.81
2023-04-15T00:01:57.714Z,996.77
2023-04-15T00:02:58.073Z,996.75
2023-04-15T00:03:58.057Z,996.71
2023-04-15T00:04:57.899Z,996.70
2023-04-15T00:05:57.661Z,996.76
2023-04-15T00:06:57.642Z,996.78
2023-04-15T00:07:57.664Z,996.72
2023-04-15T00:08:57.635Z,996.69
2023-04-15T00:09:57.653Z,996.64
2023-04-15T00:10:57.644Z,996.63
2023-04-15T00:11:57.731Z,996.68
2023-04-15T00:12:57.750Z,996.72
2023-04-15T00:13:57.807Z,996.74
2023-04-15T00:14:57.868Z,996.70
2023-04-15T00:15:57.630Z,996.73
2023-04-15T00:16:58.145Z,996.76
2023-04-15T00:17:58.009Z,996.75
2023-04-15T00:18:58.258Z,996.71
2023-04-15T00:19:58.116Z,996.73
2023-04-15T00:20:57.545Z,996.72
2023-04-15T00:21:58.164Z,996.73
2023-04-15T00:22:58.156Z,996.73
2023-04-15T00:23:57.484Z,996.73
2023-04-15T00:24:57.769Z,996.75
2023-04-15T00:25:58.180Z,996.76
2023-04-15T00:26:58.210Z,996.70
2023-04-15T00:27:58.178Z,996.68
2023-04-15T00:28:57.537Z,996.68
2023-04-15T00:29:58.261Z,996.68
2023-04-15T00:30:58.268Z,996.77
2023-04-15T00:31:57.429Z,996.71
2023-04-15T00:32:57.883Z,996.71
2023-04-15T00:33:57.939Z,996.65
2023-04-15T00:34:58.309Z,996.67
2023-04-15T00:35:58.321Z,996.73
2023-04-15T00:36:57.414Z,996.68
2023-04-15T00:37:57.505Z,996.67
2023-04-15T00:38:57.628Z,996.69
2023-04-15T00:39:58.208Z,996.69
2023-04-15T00:40:58.274Z,996.64
2023-04-15T00:41:57.402Z,996.63
2023-04-15T00:42:57.457Z,996.61
2023-04-15T00:43:57.346Z,996.57
2023-04-15T00:44:57.370Z,996.61
2023-04-15T00:45:57.458Z,996.56
2023-04-15T00:46:57.473Z,996.56
2023-04-15T00:47:57.584Z,996.56
2023-04-15T00:48:57.788Z,996.59
2023-04-15T00:49:57.590Z,996.59
2023-04-15T00:50:57.310Z,996.57
2023-04-15T00:51:57.565Z,996.54
2023-04-15T00:52:57.776Z,996.53
2023-04-15T00:53:57.824Z,996.59
2023-04-15T00:54:57.733Z,996.58
2023-04-15T00:55:57.945Z,996.62
2023-04-15T00:56:57.986Z,996.69
2023-04-15T00:57:57.842Z,996.65
2023-04-15T00:58:58.337Z,996.65
2023-04-15T00:59:57.279Z,996.64
2023-04-15T01:00:57.385Z,996.61
2023-04-15T01:01:57.967Z,996.66
2023-04-15T01:02:57.442Z,996.64
2023-04-15T01:03:57.429Z,996.66
2023-04-15T01:04:57.301Z,996.63
2023-04-15T01:05:57.351Z,996.65
2023-04-15T01:06:57.406Z,996.64
2023-04-15T01:07:57.440Z,996.62
2023-04-15T01:08:57.491Z,996.61
2023-04-15T01:09:57.536Z,996.62
2023-04-15T01:10:57.587Z,996.59
2023-04-15T01:11:57.302Z,996.59
2023-04-15T01:12:57.687Z,996.61
2023-04-15T01:13:57.754Z,996.57
2023-04-15T01:14:57.479Z,996.54
2023-04-15T01:15:57.982Z,996.62
2023-04-15T01:16:57.908Z,996.58
2023-04-15T01:17:57.654Z,996.59
2023-04-15T01:18:57.102Z,996.57
2023-04-15T01:19:57.132Z,996.53
2023-04-15T01:20:57.181Z,996.55
2023-04-15T01:21:57.221Z,996.56
2023-04-15T01:22:57.267Z,996.56
2023-04-15T01:23:57.096Z,996.54
2023-04-15T01:24:57.134Z,996.55
2023-04-15T01:25:57.126Z,996.54
2023-04-15T01:26:57.279Z,996.53
2023-04-15T01:27:57.510Z,996.51
2023-04-15T01:28:57.632Z,996.56
2023-04-15T01:29:57.050Z,996.52
2023-04-15T01:30:57.054Z,996.47
2023-04-15T01:31:57.094Z,996.49
2023-04-15T01:32:57.685Z,996.51
2023-04-15T01:33:57.306Z,996.52
2023-04-15T01:34:57.397Z,996.51
2023-04-15T01:35:57.892Z,996.48
2023-04-15T01:36:57.104Z,996.50
2023-04-15T01:37:57.795Z,996.48
2023-04-15T01:38:56.981Z,996.49
2023-04-15T01:39:57.825Z,996.53
2023-04-15T01:40:57.048Z,996.57
2023-04-15T01:41:57.059Z,996.57
2023-04-15T01:42:57.347Z,996.55
2023-04-15T01:43:57.958Z,996.56
2023-04-15T01:44:57.848Z,996.61
2023-04-15T01:45:57.613Z,996.65
2023-04-15T01:46:57.195Z,996.58
2023-04-15T01:47:57.878Z,996.62
2023-04-15T01:48:56.910Z,996.62
2023-04-15T01:49:56.908Z,996.64
2023-04-15T01:50:57.053Z,996.66
2023-04-15T01:51:57.147Z,996.64
2023-04-15T01:52:57.180Z,996.68
2023-04-15T01:53:56.922Z,996.64
2023-04-15T01:54:56.890Z,996.63
2023-04-15T01:55:56.911Z,996.67
2023-04-15T01:56:56.966Z,996.66
2023-04-15T01:57:56.948Z,996.67
2023-04-15T01:58:56.917Z,996.67
2023-04-15T01:59:56.942Z,996.70
2023-04-15T02:00:57.007Z,996.62
2023-04-15T02:01:57.058Z,996.66
2023-04-15T02:02:57.208Z,996.66
2023-04-15T02:03:57.209Z,996.63
2023-04-15T02:04:57.188Z,996.67
2023-04-15T02:05:57.246Z,996.76
2023-04-15T02:06:56.786Z,996.76
2023-04-15T02:07:57.027Z,996.75
2023-04-15T02:08:56.955Z,996.80
2023-04-15T02:09:57.431Z,996.86
2023-04-15T02:10:57.054Z,996.84
2023-04-15T02:11:57.541Z,996.81
2023-04-15T02:12:57.468Z,996.79
2023-04-15T02:13:56.841Z,996.76
2023-04-15T02:14:56.960Z,996.83
2023-04-15T02:15:57.196Z,996.77
2023-04-15T02:16:57.054Z,996.81
2023-04-15T02:17:57.206Z,996.87
2023-04-15T02:18:57.491Z,996.89
2023-04-15T02:19:56.709Z,996.93
2023-04-15T02:20:57.061Z,996.88
2023-04-15T02:21:56.874Z,996.93
2023-04-15T02:22:56.998Z,996.92
2023-04-15T02:23:57.124Z,996.93
2023-04-15T02:24:57.447Z,996.91
2023-04-15T02:25:57.323Z,996.88
2023-04-15T02:26:57.423Z,996.88
2023-04-15T02:27:57.577Z,996.90
2023-04-15T02:28:56.738Z,996.95
2023-04-15T02:29:56.752Z,997.00
2023-04-15T02:30:56.657Z,997.00
2023-04-15T02:31:56.712Z,996.99
2023-04-15T02:32:56.726Z,997.00
2023-04-15T02:33:56.771Z,996.99
2023-04-15T02:34:56.670Z,997.01
2023-04-15T02:35:56.878Z,997.02
2023-04-15T02:36:56.632Z,997.03
2023-04-15T02:37:56.661Z,996.98
2023-04-15T02:38:57.003Z,996.99
2023-04-15T02:39:57.089Z,997.04
2023-04-15T02:40:57.057Z,997.01
2023-04-15T02:41:56.605Z,996.99
2023-04-15T02:42:56.640Z,997.02
2023-04-15T02:43:56.536Z,997.09
2023-04-15T02:44:56.535Z,997.06
2023-04-15T02:45:56.612Z,997.13
2023-04-15T02:46:56.559Z,997.09
2023-04-15T02:47:56.602Z,997.18
2023-04-15T02:48:56.577Z,997.20
2023-04-15T02:49:56.492Z,997.23
2023-04-15T02:50:56.479Z,997.22
2023-04-15T02:51:56.490Z,997.23
2023-04-15T02:52:56.469Z,997.24
2023-04-15T02:53:56.492Z,997.21
2023-04-15T02:54:56.454Z,997.24
2023-04-15T02:55:56.559Z,997.21
2023-04-15T02:56:56.452Z,997.20
2023-04-15T02:57:56.694Z,997.19
2023-04-15T02:58:56.440Z,997.16
2023-04-15T02:59:56.719Z,997.16
2023-04-15T03:00:56.771Z,997.12
2023-04-15T03:01:56.447Z,997.14
2023-04-15T03:02:56.946Z,997.11
2023-04-15T03:03:56.883Z,997.14
2023-04-15T03:04:56.381Z,997.11
2023-04-15T03:05:56.390Z,997.14
2023-04-15T03:06:56.387Z,997.15
2023-04-15T03:07:56.373Z,997.11
2023-04-15T03:08:56.360Z,997.16
2023-04-15T03:09:56.402Z,997.13
2023-04-15T03:12:22.624Z,997.09
2023-04-15T03:13:22.577Z,997.16
2023-04-15T03:14:22.715Z,997.17
2023-04-15T03:15:22.300Z,997.20
2023-04-15T03:16:22.877Z,997.18
2023-04-15T03:17:22.370Z,997.21
2023-04-15T03:18:22.658Z,997.20
2023-04-15T03:19:22.304Z,997.25
2023-04-15T03:20:23.070Z,997.29
2023-04-15T03:21:22.940Z,997.27
2023-04-15T03:22:22.266Z,997.25
2023-04-15T03:23:23.047Z,997.24
2023-04-15T03:24:22.339Z,997.24
2023-04-15T03:25:22.298Z,997.27
2023-04-15T03:26:22.303Z,997.25
2023-04-15T03:27:22.237Z,997.33
2023-04-15T03:28:22.246Z,997.28
2023-04-15T03:29:22.299Z,997.27
2023-04-15T03:30:22.198Z,997.30
2023-04-15T03:31:22.455Z,997.28
2023-04-15T03:32:22.470Z,997.25
2023-04-15T03:33:22.166Z,997.23
2023-04-15T03:34:22.159Z,997.23
2023-04-15T03:35:22.182Z,997.25
2023-04-15T03:36:22.170Z,997.23
2023-04-15T03:37:22.196Z,997.18
2023-04-15T03:38:22.249Z,997.21
2023-04-15T03:39:22.231Z,997.17
2023-04-15T03:40:22.239Z,997.17
2023-04-15T03:41:22.153Z,997.18
2023-04-15T03:42:22.110Z,997.21
2023-04-15T03:43:22.134Z,997.18
2023-04-15T03:44:22.182Z,997.16
2023-04-15T03:45:22.225Z,997.16
2023-04-15T03:46:22.328Z,997.18
2023-04-15T03:47:22.359Z,997.18
2023-04-15T03:48:22.389Z,997.22
2023-04-15T03:49:22.141Z,997.27
2023-04-15T03:50:22.368Z,997.22
2023-04-15T03:51:22.380Z,997.27
2023-04-15T03:52:22.406Z,997.26
2023-04-15T03:53:22.036Z,997.33
2023-04-15T03:54:22.424Z,997.27
2023-04-15T03:55:22.088Z,997.28
2023-04-15T03:56:22.098Z,997.29
2023-04-15T03:57:22.009Z,997.29
2023-04-15T03:58:22.011Z,997.31
2023-04-15T03:59:22.019Z,997.29
2023-04-15T04:00:22.042Z,997.35
2023-04-15T04:01:22.011Z,997.32
2023-04-15T04:02:22.116Z,997.32
2023-04-15T04:03:22.182Z,997.40
2023-04-15T04:04:22.105Z,997.35
2023-04-15T04:05:22.020Z,997.34
2023-04-15T04:06:21.985Z,997.31
2023-04-15T04:07:21.949Z,997.34
2023-04-15T04:08:22.055Z,997.30
2023-04-15T04:09:21.941Z,997.34
2023-04-15T04:10:21.940Z,997.38
2023-04-15T04:11:21.932Z,997.35
2023-04-15T04:12:21.908Z,997.32
2023-04-15T04:13:22.108Z,997.30
2023-04-15T04:14:22.128Z,997.30
2023-04-15T04:15:21.911Z,997.31
2023-04-15T04:16:22.225Z,997.31
2023-04-15T04:17:22.177Z,997.30
2023-04-15T04:18:21.912Z,997.33
2023-04-15T04:19:21.865Z,997.32
2023-04-15T04:20:21.884Z,997.37
2023-04-15T04:21:21.874Z,997.32
2023-04-15T04:22:21.874Z,997.30
2023-04-15T04:23:21.931Z,997.32
2023-04-15T04:24:21.842Z,997.39
2023-04-15T04:25:21.827Z,997.34
2023-04-15T04:26:21.871Z,997.31
2023-04-15T04:27:22.113Z,997.38
2023-04-15T04:28:21.808Z,997.37
2023-04-15T04:29:21.800Z,997.42
2023-04-15T04:30:21.899Z,997.41
2023-04-15T04:31:21.956Z,997.37
2023-04-15T04:32:21.795Z,997.41
2023-04-15T04:33:22.256Z,997.43
2023-04-15T04:34:21.915Z,997.42
2023-04-15T04:35:22.387Z,997.45
2023-04-15T04:36:22.417Z,997.48
2023-04-15T04:37:21.991Z,997.43
2023-04-15T04:38:21.851Z,997.47
2023-04-15T04:39:21.778Z,997.44
2023-04-15T04:40:22.464Z,997.40
2023-04-15T04:41:21.778Z,997.44
2023-04-15T04:42:21.743Z,997.41
2023-04-15T04:43:21.726Z,997.42
2023-04-15T04:44:21.721Z,997.50
2023-04-15T04:45:21.737Z,997.45
2023-04-15T04:46:21.747Z,997.39
2023-04-15T04:47:21.742Z,997.37
2023-04-15T04:48:21.737Z,997.38
2023-04-15T04:49:21.673Z,997.39
2023-04-15T04:50:21.674Z,997.46
2023-04-15T04:51:21.696Z,997.43
2023-04-15T04:52:21.652Z,997.38
2023-04-15T04:53:21.648Z,997.50
2023-04-15T04:54:21.665Z,997.44
2023-04-15T04:55:21.626Z,997.44
2023-04-15T04:56:21.644Z,997.48
2023-04-15T04:57:21.712Z,997.50
2023-04-15T04:58:21.763Z,997.47
2023-04-15T04:59:21.793Z,997.50
2023-04-15T05:00:21.692Z,997.50
2023-04-15T05:01:21.786Z,997.52
2023-04-15T05:02:21.933Z,997.51
2023-04-15T05:03:22.006Z,997.53
2023-04-15T05:04:21.566Z,997.54
2023-04-15T05:05:21.863Z,997.56
2023-04-15T05:06:21.573Z,997.56
2023-04-15T05:07:21.727Z,997.54
2023-04-15T05:08:21.905Z,997.55
2023-04-15T05:09:21.928Z,997.63
2023-04-15T05:10:21.944Z,997.62
2023-04-15T05:11:21.723Z,997.58
2023-04-15T05:12:21.886Z,997.56
2023-04-15T05:13:21.627Z,997.60
2023-04-15T05:14:23.338Z,997.58
2023-04-15T05:15:21.594Z,997.63
2023-04-15T05:16:21.664Z,997.61
2023-04-15T05:17:21.550Z,997.65
2023-04-15T05:18:21.533Z,997.67
2023-04-15T05:19:21.603Z,997.66
2023-04-15T05:20:21.636Z,997.69
2023-04-15T05:21:21.478Z,997.71
2023-04-15T05:22:21.759Z,997.62
2023-04-15T05:23:21.441Z,997.65
2023-04-15T05:24:21.862Z,997.68
2023-04-15T05:25:21.937Z,997.66
2023-04-15T05:26:21.431Z,997.65
2023-04-15T05:27:22.014Z,997.72
2023-04-15T05:28:21.462Z,997.66
2023-04-15T05:29:21.471Z,997.79
2023-04-15T05:30:21.488Z,997.79
2023-04-15T05:31:21.569Z,997.80
2023-04-15T05:32:21.487Z,997.76
2023-04-15T05:33:21.508Z,997.82
2023-04-15T05:34:21.531Z,997.86
2023-04-15T05:35:21.590Z,997.83
2023-04-15T05:36:21.539Z,997.85
2023-04-15T05:37:21.688Z,997.80
2023-04-15T05:38:21.740Z,997.91
2023-04-15T05:39:21.401Z,997.88
2023-04-15T05:40:21.348Z,997.89
2023-04-15T05:41:21.732Z,997.89
2023-04-15T05:42:21.931Z,997.90
2023-04-15T05:43:21.984Z,997.90
2023-04-15T05:44:22.013Z,997.95
2023-04-15T05:45:21.529Z,998.03
2023-04-15T05:46:21.961Z,997.96
2023-04-15T05:47:21.909Z,998.07
2023-04-15T05:48:22.140Z,998.02
2023-04-15T05:49:21.357Z,997.99
2023-04-15T05:50:21.406Z,998.12
2023-04-15T05:51:22.112Z,998.05
2023-04-15T05:52:22.272Z,998.10
2023-04-15T05:53:21.924Z,998.09
2023-04-15T05:54:21.279Z,998.04
2023-04-15T05:55:22.252Z,998.09
2023-04-15T05:56:21.782Z,998.01
2023-04-15T05:57:21.497Z,998.06
2023-04-15T05:58:21.635Z,998.04
2023-04-15T05:59:21.609Z,998.04
2023-04-15T06:00:22.263Z,998.11
2023-04-15T06:01:21.205Z,998.05
2023-04-15T06:02:21.573Z,998.04
2023-04-15T06:03:21.320Z,998.14
2023-04-15T06:04:21.833Z,998.04
2023-04-15T06:05:21.996Z,998.13
2023-04-15T06:06:21.223Z,998.16
2023-04-15T06:07:21.321Z,998.14
2023-04-15T06:08:21.169Z,998.16
2023-04-15T06:09:21.164Z,998.10
2023-04-15T06:10:21.263Z,998.13
2023-04-15T06:11:21.157Z,998.18
2023-04-15T06:12:21.167Z,998.13
2023-04-15T06:13:21.172Z,998.20
2023-04-15T06:14:21.202Z,998.22
2023-04-15T06:15:21.268Z,998.26
2023-04-15T06:16:21.395Z,998.31
2023-04-15T06:17:21.414Z,998.25
2023-04-15T06:18:21.481Z,998.30
2023-04-15T06:19:21.452Z,998.30
2023-04-15T06:20:21.086Z,998.25
2023-04-15T06:21:21.529Z,998.25
2023-04-15T06:22:21.283Z,998.36
2023-04-15T06:23:21.629Z,998.30
2023-04-15T06:24:21.055Z,998.27
2023-04-15T06:25:21.184Z,998.31
2023-04-15T06:26:21.057Z,998.31
2023-04-15T06:27:21.240Z,998.30
2023-04-15T06:28:21.354Z,998.28
2023-04-15T06:29:21.495Z,998.26
2023-04-15T06:30:23.930Z,998.34
2023-04-15T06:31:21.834Z,998.32
2023-04-15T06:32:21.940Z,998.31
2023-04-15T06:33:21.308Z,998.31
2023-04-15T06:34:21.013Z,998.38
2023-04-15T06:35:21.142Z,998.38
2023-04-15T06:36:21.877Z,998.38
2023-04-15T06:37:21.625Z,998.39
2023-04-15T06:38:20.945Z,998.39
2023-04-15T06:39:21.144Z,998.34
2023-04-15T06:40:21.254Z,998.39
2023-04-15T06:41:20.933Z,998.39
2023-04-15T06:42:20.938Z,998.36
2023-04-15T06:43:21.019Z,998.35
2023-04-15T06:44:20.904Z,998.37
2023-04-15T06:45:22.042Z,998.31
2023-04-15T06:46:21.154Z,998.37
2023-04-15T06:47:21.073Z,998.37
2023-04-15T06:48:20.915Z,998.35
2023-04-15T06:49:20.969Z,998.38
2023-04-15T06:50:21.199Z,998.40
2023-04-15T06:51:21.228Z,998.45
2023-04-15T06:52:20.846Z,998.44
2023-04-15T06:53:21.318Z,998.46
2023-04-15T06:54:20.846Z,998.46
2023-04-15T06:55:20.856Z,998.47
2023-04-15T06:56:20.832Z,998.45
2023-04-15T06:57:20.833Z,998.39
2023-04-15T06:58:21.574Z,998.46
2023-04-15T06:59:20.852Z,998.44
2023-04-15T07:00:20.849Z,998.43
2023-04-15T07:01:20.929Z,998.44
2023-04-15T07:02:20.906Z,998.46
2023-04-15T07:03:21.141Z,998.40
2023-04-15T07:04:21.352Z,998.45
2023-04-15T07:05:20.791Z,998.37
2023-04-15T07:06:20.901Z,998.40
2023-04-15T07:07:20.777Z,998.40
2023-04-15T07:08:20.798Z,998.41
2023-04-15T07:09:20.867Z,998.42
2023-04-15T07:10:20.742Z,998.38
2023-04-15T07:11:20.966Z,998.42
2023-04-15T07:12:21.014Z,998.38
2023-04-15T07:13:21.072Z,998.43
2023-04-15T07:14:20.941Z,998.41
2023-04-15T07:15:21.177Z,998.41
2023-04-15T07:16:20.928Z,998.41
2023-04-15T07:17:21.286Z,998.43
2023-04-15T07:18:21.310Z,998.38
2023-04-15T07:19:20.700Z,998.44
2023-04-15T07:20:20.670Z,998.43
2023-04-15T07:21:20.704Z,998.46
2023-04-15T07:22:20.655Z,998.43
2023-04-15T07:23:20.774Z,998.45
2023-04-15T07:24:20.817Z,998.45
2023-04-15T07:25:20.871Z,998.45
2023-04-15T07:26:20.911Z,998.44
2023-04-15T07:27:20.959Z,998.40
2023-04-15T07:28:20.958Z,998.46
2023-04-15T07:29:20.626Z,998.43
2023-04-15T07:30:21.107Z,998.47
2023-04-15T07:31:21.193Z,998.46
2023-04-15T07:32:20.794Z,998.48
2023-04-15T07:33:21.105Z,998.44
2023-04-15T07:34:20.705Z,998.42
2023-04-15T07:35:21.386Z,998.47
2023-04-15T07:36:21.426Z,998.45
2023-04-15T07:37:20.793Z,998.43
2023-04-15T07:38:21.092Z,998.42
2023-04-15T07:39:21.461Z,998.45
2023-04-15T07:40:21.369Z,998.40
2023-04-15T07:41:20.763Z,998.41
2023-04-15T07:42:21.174Z,998.39
2023-04-15T07:43:20.883Z,998.43
2023-04-15T07:44:20.521Z,998.46
2023-04-15T07:45:20.611Z,998.40
2023-04-15T07:46:20.529Z,998.44
2023-04-15T07:47:20.708Z,998.39
2023-04-15T07:48:21.052Z,998.42
2023-04-15T07:49:20.476Z,998.41
2023-04-15T07:50:20.484Z,998.35
2023-04-15T07:51:20.472Z,998.44
2023-04-15T07:52:20.482Z,998.46
2023-04-15T07:53:20.446Z,998.43
2023-04-15T07:54:20.498Z,998.43
2023-04-15T07:55:20.518Z,998.45
2023-04-15T07:56:20.411Z,998.49
2023-04-15T07:57:20.445Z,998.51
2023-04-15T07:58:20.438Z,998.48
2023-04-15T07:59:20.419Z,998.50
2023-04-15T08:00:20.470Z,998.50
2023-04-15T08:01:20.498Z,998.51
2023-04-15T08:02:20.707Z,998.46
2023-04-15T08:03:20.409Z,998.46
2023-04-15T08:04:20.739Z,998.48
2023-04-15T08:05:20.698Z,998.49
2023-04-15T08:06:20.659Z,998.50
2023-04-15T08:07:20.332Z,998.46
2023-04-15T08:08:20.336Z,998.45
2023-04-15T08:09:20.324Z,998.48
2023-04-15T08:10:20.330Z,998.47
2023-04-15T08:11:20.311Z,998.46
2023-04-15T08:12:20.298Z,998.52
2023-04-15T08:13:20.344Z,998.50
2023-04-15T08:14:20.314Z,998.53
2023-04-15T08:15:20.325Z,998.55
2023-04-15T08:16:20.311Z,998.56
2023-04-15T08:17:20.302Z,998.51
2023-04-15T08:18:20.305Z,998.55
2023-04-15T08:19:20.310Z,998.49
2023-04-15T08:20:20.317Z,998.49
2023-04-15T08:21:20.351Z,998.51
2023-04-15T08:22:21.327Z,998.51
2023-04-15T08:23:20.361Z,998.51
2023-04-15T08:24:20.213Z,998.52
2023-04-15T08:25:20.301Z,998.53
2023-04-15T08:26:20.400Z,998.50
2023-04-15T08:27:20.401Z,998.57
2023-04-15T08:28:20.413Z,998.50
2023-04-15T08:29:20.209Z,998.51
2023-04-15T08:30:20.302Z,998.48
2023-04-15T08:31:20.473Z,998.50
2023-04-15T08:32:20.237Z,998.46
2023-04-15T08:33:20.152Z,998.48
2023-04-15T08:34:20.157Z,998.47
2023-04-15T08:35:20.249Z,998.55
2023-04-15T08:36:20.140Z,998.60
2023-04-15T08:37:20.420Z,998.53
2023-04-15T08:38:20.476Z,998.57
2023-04-15T08:39:20.516Z,998.60
2023-04-15T08:40:20.443Z,998.60
2023-04-15T08:41:21.614Z,998.54
2023-04-15T08:42:20.600Z,998.56
2023-04-15T08:43:20.623Z,998.55
2023-04-15T08:44:20.087Z,998.60
2023-04-15T08:45:20.102Z,998.63
2023-04-15T08:46:20.550Z,998.67
2023-04-15T08:47:20.427Z,998.59
2023-04-15T08:48:20.683Z,998.55
2023-04-15T08:49:20.150Z,998.67
2023-04-15T08:50:20.055Z,998.65
2023-04-15T08:51:20.052Z,998.70
2023-04-15T08:52:20.166Z,998.76
2023-04-15T08:53:20.227Z,998.74
2023-04-15T08:54:20.277Z,998.66
2023-04-15T08:55:20.329Z,998.62
2023-04-15T08:56:20.024Z,998.67
2023-04-15T08:57:20.001Z,998.60
2023-04-15T08:58:20.000Z,998.62
2023-04-15T08:59:20.007Z,998.62
2023-04-15T09:00:20.017Z,998.63
2023-04-15T09:01:20.139Z,998.56
2023-04-15T09:02:20.052Z,998.61
2023-04-15T09:03:20.010Z,998.62
2023-04-15T09:04:20.112Z,998.59
2023-04-15T09:05:20.028Z,998.57
2023-04-15T09:06:20.009Z,998.64
2023-04-15T09:07:19.967Z,998.62
2023-04-15T09:08:20.059Z,998.64
2023-04-15T09:09:20.047Z,998.74
2023-04-15T09:10:20.054Z,998.77
2023-04-15T09:11:20.373Z,998.79
2023-04-15T09:12:20.073Z,998.76
2023-04-15T09:13:20.104Z,998.76
2023-04-15T09:14:20.109Z,998.79
2023-04-15T09:15:20.123Z,998.80
2023-04-15T09:16:20.169Z,998.79
2023-04-15T09:17:20.166Z,998.81
2023-04-15T09:18:20.033Z,998.84
2023-04-15T09:19:19.842Z,998.85
2023-04-15T09:20:20.096Z,998.80
2023-04-15T09:21:20.122Z,998.87
2023-04-15T09:22:20.205Z,998.85
2023-04-15T09:23:19.952Z,998.88
2023-04-15T09:24:20.116Z,998.88
2023-04-15T09:25:19.828Z,998.93
2023-04-15T09:26:20.196Z,998.94
2023-04-15T09:27:20.269Z,998.92
2023-04-15T09:28:19.785Z,998.88
2023-04-15T09:29:19.800Z,998.96
2023-04-15T09:30:20.058Z,998.98
2023-04-15T09:31:20.391Z,999.08
2023-04-15T09:32:20.337Z,999.06
2023-04-15T09:33:20.342Z,999.08
2023-04-15T09:34:19.771Z,999.10
2023-04-15T09:35:19.746Z,999.07
2023-04-15T09:36:20.382Z,999.09
2023-04-15T09:37:31.513Z,999.13
2023-04-15T09:38:20.419Z,999.00
2023-04-15T09:39:20.431Z,999.11
2023-04-15T09:40:20.436Z,999.17
2023-04-15T09:41:19.721Z,999.13
2023-04-15T09:42:19.688Z,999.22
2023-04-15T09:43:19.710Z,999.14
2023-04-15T09:44:19.763Z,999.17
2023-04-15T09:45:19.811Z,999.19
2023-04-15T09:46:19.913Z,999.15
2023-04-15T09:47:19.927Z,999.18
2023-04-15T09:48:19.973Z,999.16
2023-04-15T09:49:20.027Z,999.21
2023-04-15T09:50:20.060Z,999.28
2023-04-15T09:51:20.119Z,999.17
2023-04-15T09:52:20.185Z,999.26
2023-04-15T09:53:19.684Z,999.25
2023-04-15T09:54:19.898Z,999.24
2023-04-15T09:55:19.923Z,999.26
2023-04-15T09:56:20.007Z,999.28
2023-04-15T09:57:19.596Z,999.34
2023-04-15T09:58:20.424Z,999.34
2023-04-15T09:59:20.207Z,999.31
2023-04-15T10:00:19.690Z,999.31
2023-04-15T10:01:20.174Z,999.32
2023-04-15T10:02:20.861Z,999.31
2023-04-15T10:03:20.700Z,999.37
2023-04-15T10:04:19.726Z,999.39
2023-04-15T10:05:19.670Z,999.33
2023-04-15T10:06:20.415Z,999.34
2023-04-15T10:07:20.686Z,999.33
2023-04-15T10:08:20.359Z,999.32
2023-04-15T10:09:19.738Z,999.31
2023-04-15T10:10:19.687Z,999.34
2023-04-15T10:11:20.441Z,999.33
2023-04-15T10:12:20.344Z,999.31
2023-04-15T10:13:19.504Z,999.31
2023-04-15T10:14:19.500Z,999.30
2023-04-15T10:15:19.546Z,999.31
2023-04-15T10:16:19.589Z,999.33
2023-04-15T10:17:19.491Z,999.36
2023-04-15T10:18:19.508Z,999.33
2023-04-15T10:19:19.440Z,999.32
2023-04-15T10:20:19.479Z,999.31
2023-04-15T10:21:19.525Z,999.28
2023-04-15T10:22:19.579Z,999.23
2023-04-15T10:23:19.622Z,999.35
2023-04-15T10:24:19.673Z,999.39
2023-04-15T10:25:19.722Z,999.37
2023-04-15T10:26:19.713Z,999.42
2023-04-15T10:27:19.416Z,999.37
2023-04-15T10:28:19.460Z,999.45
2023-04-15T10:29:19.407Z,999.46
2023-04-15T10:30:19.415Z,999.42
2023-04-15T10:31:19.428Z,999.44
2023-04-15T10:32:19.379Z,999.47
2023-04-15T10:33:19.430Z,999.50
2023-04-15T10:34:19.352Z,999.47
2023-04-15T10:35:19.506Z,999.49
2023-04-15T10:36:19.577Z,999.47
2023-04-15T10:37:19.568Z,999.48
2023-04-15T10:38:19.649Z,999.50
2023-04-15T10:39:19.526Z,999.42
2023-04-15T10:40:19.320Z,999.46
2023-04-15T10:41:21.091Z,999.45
2023-04-15T10:42:19.400Z,999.49
2023-04-15T10:43:19.748Z,999.55
2023-04-15T10:44:19.918Z,999.51
2023-04-15T10:45:19.267Z,999.42
2023-04-15T10:46:20.068Z,999.49
2023-04-15T10:47:19.276Z,999.52
2023-04-15T10:48:19.597Z,999.53
2023-04-15T10:49:19.797Z,999.55
2023-04-15T10:50:19.497Z,999.56
2023-04-15T10:51:19.465Z,999.55
2023-04-15T10:52:19.537Z,999.55
2023-04-15T10:53:21.762Z,999.59
2023-04-15T10:54:19.308Z,999.63
2023-04-15T10:55:19.727Z,999.58
2023-04-15T10:56:19.188Z,999.57
2023-04-15T10:57:19.226Z,999.59
2023-04-15T10:58:19.273Z,999.59
2023-04-15T10:59:20.386Z,999.62
2023-04-15T11:00:19.169Z,999.57
2023-04-15T11:01:19.423Z,999.58
2023-04-15T11:02:19.614Z,999.58
2023-04-15T11:03:19.623Z,999.59
2023-04-15T11:04:19.649Z,999.59
2023-04-15T11:05:19.583Z,999.59
2023-04-15T11:06:19.623Z,999.59
2023-04-15T11:07:19.244Z,999.63
2023-04-15T11:08:19.710Z,999.68
2023-04-15T11:09:19.753Z,999.63
2023-04-15T11:10:19.137Z,999.64
2023-04-15T11:11:19.132Z,999.61
2023-04-15T11:12:19.341Z,999.66
2023-04-15T11:13:19.943Z,999.70
2023-04-15T11:14:20.034Z,999.66
2023-04-15T11:15:19.236Z,999.71
2023-04-15T11:16:19.554Z,999.72
2023-04-15T11:17:19.418Z,999.74
2023-04-15T11:18:19.962Z,999.77
2023-04-15T11:19:19.829Z,999.73
2023-04-15T11:20:19.272Z,999.71
2023-04-15T11:21:19.033Z,999.74
2023-04-15T11:22:19.089Z,999.83
2023-04-15T11:23:19.755Z,999.78
2023-04-15T11:24:19.018Z,999.70
2023-04-15T11:25:19.746Z,999.78
2023-04-15T11:26:19.163Z,999.80
2023-04-15T11:27:19.065Z,999.76
2023-04-15T11:28:19.073Z,999.75
2023-04-15T11:29:19.164Z,999.83
2023-04-15T11:30:18.980Z,999.81
2023-04-15T11:31:19.047Z,999.77
2023-04-15T11:32:19.013Z,999.81
2023-04-15T11:33:18.930Z,999.80
2023-04-15T11:34:18.983Z,999.88
2023-04-15T11:35:18.991Z,999.88
2023-04-15T11:36:19.126Z,999.86
2023-04-15T11:37:19.127Z,999.89
2023-04-15T11:38:19.132Z,999.89
2023-04-15T11:39:18.912Z,999.89
2023-04-15T11:40:19.228Z,999.94
2023-04-15T11:41:19.230Z,999.86
2023-04-15T11:42:18.957Z,999.86
2023-04-15T11:43:19.380Z,999.88
2023-04-15T11:44:19.063Z,999.94
2023-04-15T11:45:19.499Z,999.94
2023-04-15T11:46:19.561Z,999.95
2023-04-15T11:47:19.624Z,1000.00
2023-04-15T11:48:19.432Z,999.98
2023-04-15T11:49:19.011Z,999.98
2023-04-15T11:50:19.220Z,1000.00
2023-04-15T11:51:19.513Z,1000.00
2023-04-15T11:52:19.244Z,999.96
2023-04-15T11:53:19.447Z,1000.01
2023-04-15T11:54:19.769Z,999.99
2023-04-15T11:55:19.126Z,999.97
2023-04-15T11:56:18.767Z,999.96
2023-04-15T11:57:19.152Z,1000.00
2023-04-15T11:58:18.764Z,999.96
2023-04-15T11:59:18.747Z,1000.01
2023-04-15T12:00:18.764Z,1000.08
2023-04-15T12:01:18.762Z,1000.04
2023-04-15T12:02:18.923Z,1000.13
2023-04-15T12:03:19.029Z,1000.14
2023-04-15T12:04:20.175Z,1000.13
2023-04-15T12:05:18.804Z,1000.24
2023-04-15T12:06:18.943Z,1000.26
2023-04-15T12:07:18.754Z,1000.20
2023-04-15T12:08:18.765Z,1000.17
2023-04-15T12:09:18.782Z,1000.28
2023-04-15T12:10:18.793Z,1000.26
2023-04-15T12:11:18.665Z,1000.25
2023-04-15T12:12:18.660Z,1000.27
2023-04-15T12:13:18.768Z,1000.29
2023-04-15T12:14:18.662Z,1000.33
2023-04-15T12:15:18.787Z,1000.39
2023-04-15T12:16:18.757Z,1000.33
2023-04-15T12:17:18.652Z,1000.32
2023-04-15T12:18:18.703Z,1000.36
2023-04-15T12:19:18.633Z,1000.35
2023-04-15T12:20:18.630Z,1000.34
2023-04-15T12:21:18.600Z,1000.36
2023-04-15T12:22:18.586Z,1000.37
2023-04-15T12:23:18.631Z,1000.42
2023-04-15T12:24:18.668Z,1000.47
2023-04-15T12:25:18.648Z,1000.47
2023-04-15T12:26:18.561Z,1000.45
2023-04-15T12:27:18.574Z,1000.42
2023-04-15T12:28:18.548Z,1000.44
2023-04-15T12:29:18.573Z,1000.45